^^
Your Local Weather - Clay, NY Station Historical Data
Daily Summary for February 4, 2018 Units:  Both    English   Metric
« Previous Day
Next Day »
Daily Weekly Monthly Yearly Custom
  High: Low: Average:
Temperature: 35.7 °F /  2.1 °C 29.9 °F /  -1.2 °C 32 °F /  0 °C
Dew Point: 29.7 °F /  -1.3 °C 12.9 °F /  -10.6 °C 25.1 °F /  -3.8 °C
Humidity: 93% 44% 78%
Wind Speed: 8.0mph /  12.9km/h - 3.6mph /  5.8km/h
Wind Gust: 17.0mph /  27.4km/h - -
Wind- - South
Pressure: 30.03 in /  1016.8 hPa 29.65 in /  1003.9 hPa -
Precipitation: 0.00 in /  0 mm    
Historical Graphs
 
 
Tabular Data for February 4, 2018
Time Temperature Dew Point Pressure Wind Wind Speed Wind Gust Humidity Rainfall Rate (Hourly) solar
00:02 30.2 °F /  -1 °C 15.5 °F /  -9.2 °C 30.03in /  1016.8hPa SSE 5.0mph /  8km/h 7.0mph /  11.3km/h 54% 0.00in /  0mm 0 W/m2
00:08 30.3 °F /  -0.9 °C 15.2 °F /  -9.3 °C 30.03in /  1016.8hPa SSW 5.0mph /  8km/h 7.0mph /  11.3km/h 53% 0.00in /  0mm 0 W/m2
00:13 30.6 °F /  -0.8 °C 15.0 °F /  -9.4 °C 30.03in /  1016.8hPa SE 5.0mph /  8km/h 10.0mph /  16.1km/h 52% 0.00in /  0mm 0 W/m2
00:19 30.7 °F /  -0.7 °C 15.1 °F /  -9.4 °C 30.02in /  1016.5hPa SW 6.0mph /  9.7km/h 6.0mph /  9.7km/h 52% 0.00in /  0mm 0 W/m2
00:25 30.7 °F /  -0.7 °C 15.1 °F /  -9.4 °C 30.02in /  1016.5hPa South 5.0mph /  8km/h 6.0mph /  9.7km/h 52% 0.00in /  0mm 0 W/m2
00:32 31.1 °F /  -0.5 °C 15.5 °F /  -9.2 °C 30.02in /  1016.5hPa SSW 6.0mph /  9.7km/h 7.0mph /  11.3km/h 52% 0.00in /  0mm 0 W/m2
00:38 31.3 °F /  -0.4 °C 15.7 °F /  -9.1 °C 30.02in /  1016.5hPa SW 6.0mph /  9.7km/h 7.0mph /  11.3km/h 52% 0.00in /  0mm 0 W/m2
00:43 31.4 °F /  -0.3 °C 15.3 °F /  -9.3 °C 30.02in /  1016.5hPa South 6.0mph /  9.7km/h 6.0mph /  9.7km/h 51% 0.00in /  0mm 0 W/m2
00:49 31.5 °F /  -0.3 °C 14.0 °F /  -10 °C 30.02in /  1016.5hPa South 8.0mph /  12.9km/h 8.0mph /  12.9km/h 48% 0.00in /  0mm 0 W/m2
00:55 31.4 °F /  -0.3 °C 13.9 °F /  -10.1 °C 30.01in /  1016.1hPa South 7.0mph /  11.3km/h 8.0mph /  12.9km/h 48% 0.00in /  0mm 0 W/m2
01:02 31.4 °F /  -0.3 °C 13.5 °F /  -10.3 °C 30.00in /  1015.8hPa SSE 6.0mph /  9.7km/h 8.0mph /  12.9km/h 47% 0.00in /  0mm 0 W/m2
01:08 31.4 °F /  -0.3 °C 13.5 °F /  -10.3 °C 30.00in /  1015.8hPa SSE 6.0mph /  9.7km/h 11.0mph /  17.7km/h 47% 0.00in /  0mm 0 W/m2
01:14 31.4 °F /  -0.3 °C 13.5 °F /  -10.3 °C 30.00in /  1015.8hPa South 6.0mph /  9.7km/h 7.0mph /  11.3km/h 47% 0.00in /  0mm 0 W/m2
01:20 31.3 °F /  -0.4 °C 13.4 °F /  -10.3 °C 30.00in /  1015.8hPa South 6.0mph /  9.7km/h 6.0mph /  9.7km/h 47% 0.00in /  0mm 0 W/m2
01:26 31.3 °F /  -0.4 °C 12.9 °F /  -10.6 °C 30.00in /  1015.8hPa SSE 5.0mph /  8km/h 8.0mph /  12.9km/h 46% 0.00in /  0mm 0 W/m2
01:32 31.4 °F /  -0.3 °C 13.0 °F /  -10.6 °C 30.00in /  1015.8hPa SSE 5.0mph /  8km/h 5.0mph /  8km/h 46% 0.00in /  0mm 0 W/m2
01:38 31.4 °F /  -0.3 °C 13.0 °F /  -10.6 °C 29.99in /  1015.5hPa South 4.0mph /  6.4km/h 5.0mph /  8km/h 46% 0.00in /  0mm 0 W/m2
01:44 31.3 °F /  -0.4 °C 12.9 °F /  -10.6 °C 29.99in /  1015.5hPa SSE 3.0mph /  4.8km/h 4.0mph /  6.4km/h 46% 0.00in /  0mm 0 W/m2
01:50 31.3 °F /  -0.4 °C 12.9 °F /  -10.6 °C 29.99in /  1015.5hPa South 3.0mph /  4.8km/h 3.0mph /  4.8km/h 46% 0.00in /  0mm 0 W/m2
01:56 31.4 °F /  -0.3 °C 13.5 °F /  -10.3 °C 29.97in /  1014.8hPa SSE 3.0mph /  4.8km/h 7.0mph /  11.3km/h 47% 0.00in /  0mm 0 W/m2
02:02 31.7 °F /  -0.2 °C 13.7 °F /  -10.2 °C 29.98in /  1015.1hPa South 4.0mph /  6.4km/h 4.0mph /  6.4km/h 47% 0.00in /  0mm 0 W/m2
02:08 31.9 °F /  -0.1 °C 13.4 °F /  -10.3 °C 29.97in /  1014.8hPa SSE 4.0mph /  6.4km/h 4.0mph /  6.4km/h 46% 0.00in /  0mm 0 W/m2
02:14 32.1 °F /  0.1 °C 14.1 °F /  -9.9 °C 29.97in /  1014.8hPa SSE 5.0mph /  8km/h 7.0mph /  11.3km/h 47% 0.00in /  0mm 0 W/m2
02:20 32.1 °F /  0.1 °C 14.1 °F /  -9.9 °C 29.96in /  1014.4hPa SSW 4.0mph /  6.4km/h 6.0mph /  9.7km/h 47% 0.00in /  0mm 0 W/m2
02:26 32.3 °F /  0.2 °C 13.8 °F /  -10.1 °C 29.96in /  1014.4hPa South 4.0mph /  6.4km/h 6.0mph /  9.7km/h 46% 0.00in /  0mm 0 W/m2
02:32 32.2 °F /  0.1 °C 13.7 °F /  -10.2 °C 29.96in /  1014.4hPa South 5.0mph /  8km/h 6.0mph /  9.7km/h 46% 0.00in /  0mm 0 W/m2
02:38 32.1 °F /  0.1 °C 14.1 °F /  -9.9 °C 29.96in /  1014.4hPa South 4.0mph /  6.4km/h 6.0mph /  9.7km/h 47% 0.00in /  0mm 0 W/m2
02:44 32.1 °F /  0.1 °C 13.6 °F /  -10.2 °C 29.96in /  1014.4hPa South 3.0mph /  4.8km/h 10.0mph /  16.1km/h 46% 0.00in /  0mm 0 W/m2
02:50 32.5 °F /  0.3 °C 14.0 °F /  -10 °C 29.95in /  1014.1hPa SW 4.0mph /  6.4km/h 4.0mph /  6.4km/h 46% 0.00in /  0mm 0 W/m2
02:56 32.8 °F /  0.4 °C 13.8 °F /  -10.1 °C 29.95in /  1014.1hPa South 5.0mph /  8km/h 7.0mph /  11.3km/h 45% 0.00in /  0mm 0 W/m2
03:02 32.9 °F /  0.5 °C 13.9 °F /  -10.1 °C 29.95in /  1014.1hPa South 5.0mph /  8km/h 8.0mph /  12.9km/h 45% 0.00in /  0mm 0 W/m2
03:08 33.1 °F /  0.6 °C 14.0 °F /  -10 °C 29.95in /  1014.1hPa SW 4.0mph /  6.4km/h 8.0mph /  12.9km/h 45% 0.00in /  0mm 0 W/m2
03:14 33.2 °F /  0.7 °C 13.6 °F /  -10.2 °C 29.95in /  1014.1hPa South 4.0mph /  6.4km/h 9.0mph /  14.5km/h 44% 0.00in /  0mm 0 W/m2
03:20 33.2 °F /  0.7 °C 13.6 °F /  -10.2 °C 29.94in /  1013.8hPa SSE 5.0mph /  8km/h 6.0mph /  9.7km/h 44% 0.00in /  0mm 0 W/m2
03:26 33.2 °F /  0.7 °C 14.1 °F /  -9.9 °C 29.94in /  1013.8hPa South 5.0mph /  8km/h 6.0mph /  9.7km/h 45% 0.00in /  0mm 0 W/m2
03:32 33.3 °F /  0.7 °C 14.2 °F /  -9.9 °C 29.94in /  1013.8hPa SW 4.0mph /  6.4km/h 6.0mph /  9.7km/h 45% 0.00in /  0mm 0 W/m2
03:38 33.4 °F /  0.8 °C 14.8 °F /  -9.6 °C 29.94in /  1013.8hPa SSW 3.0mph /  4.8km/h 6.0mph /  9.7km/h 46% 0.00in /  0mm 0 W/m2
03:44 33.8 °F /  1 °C 14.7 °F /  -9.6 °C 29.95in /  1014.1hPa SW 4.0mph /  6.4km/h 7.0mph /  11.3km/h 45% 0.00in /  0mm 0 W/m2
03:50 34.3 °F /  1.3 °C 14.6 °F /  -9.7 °C 29.95in /  1014.1hPa SSE 5.0mph /  8km/h 5.0mph /  8km/h 44% 0.00in /  0mm 0 W/m2
03:58 34.5 °F /  1.4 °C 14.8 °F /  -9.6 °C 29.94in /  1013.8hPa South 6.0mph /  9.7km/h 8.0mph /  12.9km/h 44% 0.00in /  0mm 0 W/m2
04:04 34.5 °F /  1.4 °C 14.8 °F /  -9.6 °C 29.94in /  1013.8hPa South 5.0mph /  8km/h 6.0mph /  9.7km/h 44% 0.00in /  0mm 0 W/m2
04:10 34.6 °F /  1.4 °C 15.4 °F /  -9.2 °C 29.94in /  1013.8hPa SW 5.0mph /  8km/h 6.0mph /  9.7km/h 45% 0.00in /  0mm 0 W/m2
04:16 35.1 °F /  1.7 °C 15.3 °F /  -9.3 °C 29.94in /  1013.8hPa SSW 4.0mph /  6.4km/h 7.0mph /  11.3km/h 44% 0.00in /  0mm 0 W/m2
04:22 35.4 °F /  1.9 °C 15.6 °F /  -9.1 °C 29.95in /  1014.1hPa South 7.0mph /  11.3km/h 17.0mph /  27.4km/h 44% 0.00in /  0mm 0 W/m2
04:28 35.3 °F /  1.8 °C 15.5 °F /  -9.2 °C 29.95in /  1014.1hPa SW 7.0mph /  11.3km/h 17.0mph /  27.4km/h 44% 0.00in /  0mm 0 W/m2
04:34 35.3 °F /  1.8 °C 16.0 °F /  -8.9 °C 29.94in /  1013.8hPa SW 7.0mph /  11.3km/h 8.0mph /  12.9km/h 45% 0.00in /  0mm 0 W/m2
04:40 35.4 °F /  1.9 °C 16.6 °F /  -8.6 °C 29.94in /  1013.8hPa South 8.0mph /  12.9km/h 10.0mph /  16.1km/h 46% 0.00in /  0mm 0 W/m2
04:46 35.7 °F /  2.1 °C 17.4 °F /  -8.1 °C 29.94in /  1013.8hPa SSW 8.0mph /  12.9km/h 10.0mph /  16.1km/h 47% 0.00in /  0mm 0 W/m2
04:52 35.6 °F /  2 °C 17.8 °F /  -7.9 °C 29.94in /  1013.8hPa South 8.0mph /  12.9km/h 8.0mph /  12.9km/h 48% 0.00in /  0mm 0 W/m2
04:58 35.7 °F /  2.1 °C 17.9 °F /  -7.8 °C 29.93in /  1013.4hPa South 7.0mph /  11.3km/h 8.0mph /  12.9km/h 48% 0.00in /  0mm 0 W/m2
05:04 35.6 °F /  2 °C 18.8 °F /  -7.3 °C 29.93in /  1013.4hPa SSW 7.0mph /  11.3km/h 7.0mph /  11.3km/h 50% 0.00in /  0mm 0 W/m2
05:10 35.6 °F /  2 °C 18.8 °F /  -7.3 °C 29.94in /  1013.8hPa SW 6.0mph /  9.7km/h 6.0mph /  9.7km/h 50% 0.00in /  0mm 0 W/m2
05:16 35.7 °F /  2.1 °C 18.9 °F /  -7.3 °C 29.94in /  1013.8hPa SSW 6.0mph /  9.7km/h 6.0mph /  9.7km/h 50% 0.00in /  0mm 0 W/m2
05:22 35.6 °F /  2 °C 19.2 °F /  -7.1 °C 29.94in /  1013.8hPa SW 5.0mph /  8km/h 7.0mph /  11.3km/h 51% 0.00in /  0mm 0 W/m2
05:28 35.5 °F /  1.9 °C 19.1 °F /  -7.2 °C 29.94in /  1013.8hPa West 3.0mph /  4.8km/h 7.0mph /  11.3km/h 51% 0.00in /  0mm 0 W/m2
05:34 35.6 °F /  2 °C 20.1 °F /  -6.6 °C 29.94in /  1013.8hPa SW 3.0mph /  4.8km/h 10.0mph /  16.1km/h 53% 0.00in /  0mm 0 W/m2
05:40 35.5 °F /  1.9 °C 21.8 °F /  -5.7 °C 29.94in /  1013.8hPa SW 5.0mph /  8km/h 7.0mph /  11.3km/h 57% 0.00in /  0mm 0 W/m2
05:46 35.3 °F /  1.8 °C 22.8 °F /  -5.1 °C 29.94in /  1013.8hPa South 5.0mph /  8km/h 7.0mph /  11.3km/h 60% 0.00in /  0mm 0 W/m2
05:52 35.3 °F /  1.8 °C 23.6 °F /  -4.7 °C 29.94in /  1013.8hPa South 6.0mph /  9.7km/h 7.0mph /  11.3km/h 62% 0.00in /  0mm 0 W/m2
05:58 35.3 °F /  1.8 °C 23.6 °F /  -4.7 °C 29.94in /  1013.8hPa South 6.0mph /  9.7km/h 9.0mph /  14.5km/h 62% 0.00in /  0mm 0 W/m2
06:04 35.3 °F /  1.8 °C 24.0 °F /  -4.4 °C 29.94in /  1013.8hPa SSW 5.0mph /  8km/h 12.0mph /  19.3km/h 63% 0.00in /  0mm 0 W/m2
06:10 35.4 °F /  1.9 °C 24.0 °F /  -4.4 °C 29.94in /  1013.8hPa SSW 5.0mph /  8km/h 5.0mph /  8km/h 63% 0.00in /  0mm 0 W/m2
06:16 35.4 °F /  1.9 °C 24.0 °F /  -4.4 °C 29.94in /  1013.8hPa South 4.0mph /  6.4km/h 8.0mph /  12.9km/h 63% 0.00in /  0mm 0 W/m2
06:22 35.6 °F /  2 °C 24.2 °F /  -4.3 °C 29.94in /  1013.8hPa SSW 5.0mph /  8km/h 7.0mph /  11.3km/h 63% 0.00in /  0mm 0 W/m2
06:28 35.7 °F /  2.1 °C 24.7 °F /  -4.1 °C 29.94in /  1013.8hPa South 5.0mph /  8km/h 9.0mph /  14.5km/h 64% 0.00in /  0mm 0 W/m2
06:34 35.7 °F /  2.1 °C 24.3 °F /  -4.3 °C 29.94in /  1013.8hPa SSE 5.0mph /  8km/h 8.0mph /  12.9km/h 63% 0.00in /  0mm 0 W/m2
06:40 35.5 °F /  1.9 °C 24.5 °F /  -4.2 °C 29.94in /  1013.8hPa SSW 5.0mph /  8km/h 5.0mph /  8km/h 64% 0.00in /  0mm 0 W/m2
06:46 35.0 °F /  1.7 °C 24.0 °F /  -4.4 °C 29.94in /  1013.8hPa South 5.0mph /  8km/h 7.0mph /  11.3km/h 64% 0.00in /  0mm 0 W/m2
06:52 34.8 °F /  1.6 °C 24.6 °F /  -4.1 °C 29.94in /  1013.8hPa South 7.0mph /  11.3km/h 7.0mph /  11.3km/h 66% 0.00in /  0mm 0 W/m2
06:58 34.3 °F /  1.3 °C 24.5 °F /  -4.2 °C 29.94in /  1013.8hPa South 6.0mph /  9.7km/h 9.0mph /  14.5km/h 67% 0.00in /  0mm 0 W/m2
07:04 33.9 °F /  1.1 °C 24.8 °F /  -4 °C 29.95in /  1014.1hPa SSW 6.0mph /  9.7km/h 9.0mph /  14.5km/h 69% 0.00in /  0mm 0 W/m2
07:10 33.3 °F /  0.7 °C 24.9 °F /  -3.9 °C 29.95in /  1014.1hPa South 5.0mph /  8km/h 10.0mph /  16.1km/h 71% 0.00in /  0mm 0 W/m2
07:16 32.8 °F /  0.4 °C 25.1 °F /  -3.8 °C 29.95in /  1014.1hPa South 6.0mph /  9.7km/h 10.0mph /  16.1km/h 73% 0.00in /  0mm 0 W/m2
07:22 32.1 °F /  0.1 °C 25.4 °F /  -3.7 °C 29.94in /  1013.8hPa SSW 6.0mph /  9.7km/h 10.0mph /  16.1km/h 76% 0.00in /  0mm 0 W/m2
07:28 31.7 °F /  -0.2 °C 25.9 °F /  -3.4 °C 29.95in /  1014.1hPa SSE 5.0mph /  8km/h 10.0mph /  16.1km/h 79% 0.00in /  0mm 0 W/m2
07:34 31.4 °F /  -0.3 °C 25.9 °F /  -3.4 °C 29.95in /  1014.1hPa South 5.0mph /  8km/h 8.0mph /  12.9km/h 80% 0.00in /  0mm 0 W/m2
07:40 31.2 °F /  -0.4 °C 26.3 °F /  -3.2 °C 29.95in /  1014.1hPa South 5.0mph /  8km/h 5.0mph /  8km/h 82% 0.00in /  0mm 0 W/m2
07:46 31.0 °F /  -0.6 °C 26.4 °F /  -3.1 °C 29.95in /  1014.1hPa South 6.0mph /  9.7km/h 6.0mph /  9.7km/h 83% 0.00in /  0mm 7 W/m2
07:52 31.0 °F /  -0.6 °C 26.7 °F /  -2.9 °C 29.95in /  1014.1hPa SSW 5.0mph /  8km/h 5.0mph /  8km/h 84% 0.00in /  0mm 9 W/m2
07:58 30.9 °F /  -0.6 °C 26.9 °F /  -2.8 °C 29.95in /  1014.1hPa South 5.0mph /  8km/h 5.0mph /  8km/h 85% 0.00in /  0mm 9 W/m2
08:04 30.8 °F /  -0.7 °C 26.8 °F /  -2.9 °C 29.95in /  1014.1hPa South 5.0mph /  8km/h 10.0mph /  16.1km/h 85% 0.00in /  0mm 11 W/m2
08:10 30.8 °F /  -0.7 °C 27.1 °F /  -2.7 °C 29.94in /  1013.8hPa South 5.0mph /  8km/h 5.0mph /  8km/h 86% 0.00in /  0mm 14 W/m2
08:16 30.7 °F /  -0.7 °C 27.0 °F /  -2.8 °C 29.94in /  1013.8hPa SSE 5.0mph /  8km/h 5.0mph /  8km/h 86% 0.00in /  0mm 14 W/m2
08:22 30.7 °F /  -0.7 °C 27.3 °F /  -2.6 °C 29.94in /  1013.8hPa SSW 5.0mph /  8km/h 6.0mph /  9.7km/h 87% 0.00in /  0mm 16 W/m2
08:28 30.7 °F /  -0.7 °C 27.3 °F /  -2.6 °C 29.94in /  1013.8hPa South 5.0mph /  8km/h 6.0mph /  9.7km/h 87% 0.00in /  0mm 21 W/m2
08:34 30.7 °F /  -0.7 °C 27.6 °F /  -2.4 °C 29.94in /  1013.8hPa SSW 5.0mph /  8km/h 6.0mph /  9.7km/h 88% 0.00in /  0mm 21 W/m2
08:40 30.8 °F /  -0.7 °C 27.7 °F /  -2.4 °C 29.93in /  1013.4hPa South 5.0mph /  8km/h 5.0mph /  8km/h 88% 0.00in /  0mm 21 W/m2
08:46 30.9 °F /  -0.6 °C 27.5 °F /  -2.5 °C 29.93in /  1013.4hPa SSE 5.0mph /  8km/h 6.0mph /  9.7km/h 87% 0.00in /  0mm 25 W/m2
08:52 31.0 °F /  -0.6 °C 27.6 °F /  -2.4 °C 29.93in /  1013.4hPa SSE 6.0mph /  9.7km/h 9.0mph /  14.5km/h 87% 0.00in /  0mm 26 W/m2
08:58 31.0 °F /  -0.6 °C 27.6 °F /  -2.4 °C 29.94in /  1013.8hPa SSW 6.0mph /  9.7km/h 9.0mph /  14.5km/h 87% 0.00in /  0mm 25 W/m2
09:04 30.9 °F /  -0.6 °C 27.5 °F /  -2.5 °C 29.93in /  1013.4hPa SSE 5.0mph /  8km/h 7.0mph /  11.3km/h 87% 0.00in /  0mm 28 W/m2
09:10 30.8 °F /  -0.7 °C 27.4 °F /  -2.6 °C 29.93in /  1013.4hPa SE 6.0mph /  9.7km/h 11.0mph /  17.7km/h 87% 0.00in /  0mm 30 W/m2
09:16 30.8 °F /  -0.7 °C 27.7 °F /  -2.4 °C 29.93in /  1013.4hPa SSW 7.0mph /  11.3km/h 11.0mph /  17.7km/h 88% 0.00in /  0mm 35 W/m2
09:22 30.8 °F /  -0.7 °C 27.7 °F /  -2.4 °C 29.93in /  1013.4hPa SSE 6.0mph /  9.7km/h 7.0mph /  11.3km/h 88% 0.00in /  0mm 39 W/m2
09:28 30.8 °F /  -0.7 °C 27.7 °F /  -2.4 °C 29.93in /  1013.4hPa South 5.0mph /  8km/h 7.0mph /  11.3km/h 88% 0.00in /  0mm 49 W/m2
09:34 30.8 °F /  -0.7 °C 27.7 °F /  -2.4 °C 29.93in /  1013.4hPa SSE 4.0mph /  6.4km/h 8.0mph /  12.9km/h 88% 0.00in /  0mm 51 W/m2
09:40 30.9 °F /  -0.6 °C 27.8 °F /  -2.3 °C 29.93in /  1013.4hPa South 5.0mph /  8km/h 6.0mph /  9.7km/h 88% 0.00in /  0mm 51 W/m2
09:46 31.0 °F /  -0.6 °C 27.9 °F /  -2.3 °C 29.93in /  1013.4hPa South 6.0mph /  9.7km/h 6.0mph /  9.7km/h 88% 0.00in /  0mm 53 W/m2
09:52 31.1 °F /  -0.5 °C 28.0 °F /  -2.2 °C 29.93in /  1013.4hPa South 5.0mph /  8km/h 5.0mph /  8km/h 88% 0.00in /  0mm 63 W/m2
09:58 31.3 °F /  -0.4 °C 28.2 °F /  -2.1 °C 29.92in /  1013.1hPa South 6.0mph /  9.7km/h 7.0mph /  11.3km/h 88% 0.00in /  0mm 70 W/m2
10:04 31.4 °F /  -0.3 °C 28.0 °F /  -2.2 °C 29.92in /  1013.1hPa SSE 6.0mph /  9.7km/h 9.0mph /  14.5km/h 87% 0.00in /  0mm 70 W/m2
10:10 31.5 °F /  -0.3 °C 28.1 °F /  -2.2 °C 29.92in /  1013.1hPa South 6.0mph /  9.7km/h 8.0mph /  12.9km/h 87% 0.00in /  0mm 76 W/m2
10:16 31.5 °F /  -0.3 °C 28.1 °F /  -2.2 °C 29.92in /  1013.1hPa ESE 6.0mph /  9.7km/h 10.0mph /  16.1km/h 87% 0.00in /  0mm 74 W/m2
10:22 31.5 °F /  -0.3 °C 28.1 °F /  -2.2 °C 29.92in /  1013.1hPa South 6.0mph /  9.7km/h 12.0mph /  19.3km/h 87% 0.00in /  0mm 84 W/m2
10:28 31.6 °F /  -0.2 °C 28.2 °F /  -2.1 °C 29.92in /  1013.1hPa SSW 6.0mph /  9.7km/h 12.0mph /  19.3km/h 87% 0.00in /  0mm 98 W/m2
10:34 31.7 °F /  -0.2 °C 28.3 °F /  -2.1 °C 29.92in /  1013.1hPa SW 6.0mph /  9.7km/h 6.0mph /  9.7km/h 87% 0.00in /  0mm 113 W/m2
10:40 31.8 °F /  -0.1 °C 28.4 °F /  -2 °C 29.92in /  1013.1hPa SE 5.0mph /  8km/h 5.0mph /  8km/h 87% 0.00in /  0mm 123 W/m2
10:46 31.9 °F /  -0.1 °C 28.5 °F /  -1.9 °C 29.92in /  1013.1hPa SW 6.0mph /  9.7km/h 9.0mph /  14.5km/h 87% 0.00in /  0mm 114 W/m2
10:52 32.0 °F /  0 °C 28.6 °F /  -1.9 °C 29.92in /  1013.1hPa South 5.0mph /  8km/h 10.0mph /  16.1km/h 87% 0.00in /  0mm 111 W/m2
10:58 32.0 °F /  0 °C 28.6 °F /  -1.9 °C 29.92in /  1013.1hPa South 6.0mph /  9.7km/h 10.0mph /  16.1km/h 87% 0.00in /  0mm 102 W/m2
11:04 32.1 °F /  0.1 °C 28.4 °F /  -2 °C 29.91in /  1012.8hPa SSW 7.0mph /  11.3km/h 9.0mph /  14.5km/h 86% 0.00in /  0mm 109 W/m2
11:10 32.2 °F /  0.1 °C 28.5 °F /  -1.9 °C 29.91in /  1012.8hPa SSE 7.0mph /  11.3km/h 7.0mph /  11.3km/h 86% 0.00in /  0mm 107 W/m2
11:16 32.3 °F /  0.2 °C 28.0 °F /  -2.2 °C 29.91in /  1012.8hPa SW 7.0mph /  11.3km/h 8.0mph /  12.9km/h 84% 0.00in /  0mm 114 W/m2
11:22 32.5 °F /  0.3 °C 28.2 °F /  -2.1 °C 29.91in /  1012.8hPa South 6.0mph /  9.7km/h 8.0mph /  12.9km/h 84% 0.00in /  0mm 113 W/m2
11:28 32.7 °F /  0.4 °C 27.8 °F /  -2.3 °C 29.90in /  1012.4hPa South 7.0mph /  11.3km/h 14.0mph /  22.5km/h 82% 0.00in /  0mm 104 W/m2
11:34 32.7 °F /  0.4 °C 27.8 °F /  -2.3 °C 29.90in /  1012.4hPa SSE 8.0mph /  12.9km/h 13.0mph /  20.9km/h 82% 0.00in /  0mm 109 W/m2
11:40 32.6 °F /  0.3 °C 27.7 °F /  -2.4 °C 29.90in /  1012.4hPa South 6.0mph /  9.7km/h 6.0mph /  9.7km/h 82% 0.00in /  0mm 104 W/m2
11:46 32.5 °F /  0.3 °C 27.9 °F /  -2.3 °C 29.90in /  1012.4hPa SSE 6.0mph /  9.7km/h 8.0mph /  12.9km/h 83% 0.00in /  0mm 98 W/m2
11:52 32.5 °F /  0.3 °C 27.9 °F /  -2.3 °C 29.89in /  1012.1hPa South 7.0mph /  11.3km/h 7.0mph /  11.3km/h 83% 0.00in /  0mm 95 W/m2
11:58 32.3 °F /  0.2 °C 28.0 °F /  -2.2 °C 29.89in /  1012.1hPa SSE 6.0mph /  9.7km/h 7.0mph /  11.3km/h 84% 0.00in /  0mm 88 W/m2
12:04 32.2 °F /  0.1 °C 27.9 °F /  -2.3 °C 29.89in /  1012.1hPa SSE 7.0mph /  11.3km/h 10.0mph /  16.1km/h 84% 0.00in /  0mm 84 W/m2
12:10 32.1 °F /  0.1 °C 28.1 °F /  -2.2 °C 29.88in /  1011.7hPa SSE 7.0mph /  11.3km/h 7.0mph /  11.3km/h 85% 0.00in /  0mm 84 W/m2
12:16 32.1 °F /  0.1 °C 28.1 °F /  -2.2 °C 29.88in /  1011.7hPa WSW 6.0mph /  9.7km/h 8.0mph /  12.9km/h 85% 0.00in /  0mm 88 W/m2
12:22 32.1 °F /  0.1 °C 28.1 °F /  -2.2 °C 29.87in /  1011.4hPa South 6.0mph /  9.7km/h 7.0mph /  11.3km/h 85% 0.00in /  0mm 90 W/m2
12:28 32.2 °F /  0.1 °C 28.2 °F /  -2.1 °C 29.87in /  1011.4hPa South 6.0mph /  9.7km/h 7.0mph /  11.3km/h 85% 0.00in /  0mm 76 W/m2
12:34 32.1 °F /  0.1 °C 28.1 °F /  -2.2 °C 29.87in /  1011.4hPa SE 6.0mph /  9.7km/h 9.0mph /  14.5km/h 85% 0.00in /  0mm 74 W/m2
12:40 31.9 °F /  -0.1 °C 28.2 °F /  -2.1 °C 29.86in /  1011.1hPa SSW 6.0mph /  9.7km/h 9.0mph /  14.5km/h 86% 0.00in /  0mm 74 W/m2
12:46 31.9 °F /  -0.1 °C 28.2 °F /  -2.1 °C 29.86in /  1011.1hPa South 6.0mph /  9.7km/h 9.0mph /  14.5km/h 86% 0.00in /  0mm 76 W/m2
12:52 31.8 °F /  -0.1 °C 28.4 °F /  -2 °C 29.85in /  1010.7hPa SSE 6.0mph /  9.7km/h 8.0mph /  12.9km/h 87% 0.00in /  0mm 83 W/m2
12:58 31.9 °F /  -0.1 °C 28.5 °F /  -1.9 °C 29.85in /  1010.7hPa SSE 7.0mph /  11.3km/h 10.0mph /  16.1km/h 87% 0.00in /  0mm 95 W/m2
13:04 31.9 °F /  -0.1 °C 28.5 °F /  -1.9 °C 29.85in /  1010.7hPa South 7.0mph /  11.3km/h 9.0mph /  14.5km/h 87% 0.00in /  0mm 100 W/m2
13:10 32.1 °F /  0.1 °C 28.7 °F /  -1.8 °C 29.85in /  1010.7hPa SE 6.0mph /  9.7km/h 6.0mph /  9.7km/h 87% 0.00in /  0mm 104 W/m2
13:16 32.2 °F /  0.1 °C 28.5 °F /  -1.9 °C 29.84in /  1010.4hPa South 6.0mph /  9.7km/h 6.0mph /  9.7km/h 86% 0.00in /  0mm 107 W/m2
13:22 32.3 °F /  0.2 °C 28.6 °F /  -1.9 °C 29.84in /  1010.4hPa SSW 6.0mph /  9.7km/h 6.0mph /  9.7km/h 86% 0.00in /  0mm 102 W/m2
13:28 32.3 °F /  0.2 °C 28.6 °F /  -1.9 °C 29.84in /  1010.4hPa SW 7.0mph /  11.3km/h 10.0mph /  16.1km/h 86% 0.00in /  0mm 90 W/m2
13:34 32.3 °F /  0.2 °C 28.6 °F /  -1.9 °C 29.84in /  1010.4hPa South 7.0mph /  11.3km/h 11.0mph /  17.7km/h 86% 0.00in /  0mm 86 W/m2
13:40 32.1 °F /  0.1 °C 28.7 °F /  -1.8 °C 29.84in /  1010.4hPa SSW 6.0mph /  9.7km/h 6.0mph /  9.7km/h 87% 0.00in /  0mm 81 W/m2
13:46 32.0 °F /  0 °C 28.6 °F /  -1.9 °C 29.83in /  1010hPa SSW 6.0mph /  9.7km/h 11.0mph /  17.7km/h 87% 0.00in /  0mm 72 W/m2
13:52 31.9 °F /  -0.1 °C 28.8 °F /  -1.8 °C 29.83in /  1010hPa South 6.0mph /  9.7km/h 7.0mph /  11.3km/h 88% 0.00in /  0mm 70 W/m2
13:58 31.9 °F /  -0.1 °C 28.8 °F /  -1.8 °C 29.83in /  1010hPa South 5.0mph /  8km/h 7.0mph /  11.3km/h 88% 0.00in /  0mm 67 W/m2
14:04 31.8 °F /  -0.1 °C 28.9 °F /  -1.7 °C 29.82in /  1009.7hPa SSE 5.0mph /  8km/h 5.0mph /  8km/h 89% 0.00in /  0mm 63 W/m2
14:10 31.8 °F /  -0.1 °C 28.9 °F /  -1.7 °C 29.82in /  1009.7hPa SSE 5.0mph /  8km/h 5.0mph /  8km/h 89% 0.00in /  0mm 54 W/m2
14:16 31.8 °F /  -0.1 °C 28.9 °F /  -1.7 °C 29.81in /  1009.4hPa SSE 5.0mph /  8km/h 5.0mph /  8km/h 89% 0.00in /  0mm 47 W/m2
14:22 31.7 °F /  -0.2 °C 29.1 °F /  -1.6 °C 29.81in /  1009.4hPa SSW 5.0mph /  8km/h 6.0mph /  9.7km/h 90% 0.00in /  0mm 44 W/m2
14:28 31.7 °F /  -0.2 °C 29.1 °F /  -1.6 °C 29.81in /  1009.4hPa South 4.0mph /  6.4km/h 6.0mph /  9.7km/h 90% 0.00in /  0mm 46 W/m2
14:34 31.7 °F /  -0.2 °C 29.1 °F /  -1.6 °C 29.81in /  1009.4hPa SE 4.0mph /  6.4km/h 7.0mph /  11.3km/h 90% 0.00in /  0mm 44 W/m2
14:40 31.7 °F /  -0.2 °C 29.1 °F /  -1.6 °C 29.81in /  1009.4hPa SSE 4.0mph /  6.4km/h 8.0mph /  12.9km/h 90% 0.00in /  0mm 37 W/m2
14:46 31.7 °F /  -0.2 °C 29.1 °F /  -1.6 °C 29.81in /  1009.4hPa SSW 3.0mph /  4.8km/h 8.0mph /  12.9km/h 90% 0.00in /  0mm 33 W/m2
14:52 31.7 °F /  -0.2 °C 29.1 °F /  -1.6 °C 29.80in /  1009hPa SSE 3.0mph /  4.8km/h 7.0mph /  11.3km/h 90% 0.00in /  0mm 35 W/m2
14:58 31.6 °F /  -0.2 °C 29.3 °F /  -1.5 °C 29.80in /  1009hPa SSE 4.0mph /  6.4km/h 7.0mph /  11.3km/h 91% 0.00in /  0mm 40 W/m2
15:04 31.6 °F /  -0.2 °C 29.3 °F /  -1.5 °C 29.79in /  1008.7hPa SSE 4.0mph /  6.4km/h 4.0mph /  6.4km/h 91% 0.00in /  0mm 42 W/m2
15:10 31.6 °F /  -0.2 °C 29.3 °F /  -1.5 °C 29.79in /  1008.7hPa SSE 4.0mph /  6.4km/h 4.0mph /  6.4km/h 91% 0.00in /  0mm 47 W/m2
15:16 31.6 °F /  -0.2 °C 29.3 °F /  -1.5 °C 29.79in /  1008.7hPa SSE 4.0mph /  6.4km/h 4.0mph /  6.4km/h 91% 0.00in /  0mm 44 W/m2
15:22 31.6 °F /  -0.2 °C 29.3 °F /  -1.5 °C 29.79in /  1008.7hPa SSE 3.0mph /  4.8km/h 3.0mph /  4.8km/h 91% 0.00in /  0mm 44 W/m2
15:28 31.6 °F /  -0.2 °C 29.3 °F /  -1.5 °C 29.79in /  1008.7hPa SSE 3.0mph /  4.8km/h 4.0mph /  6.4km/h 91% 0.00in /  0mm 39 W/m2
15:34 31.7 °F /  -0.2 °C 29.4 °F /  -1.4 °C 29.79in /  1008.7hPa South 3.0mph /  4.8km/h 3.0mph /  4.8km/h 91% 0.00in /  0mm 40 W/m2
15:40 31.7 °F /  -0.2 °C 29.4 °F /  -1.4 °C 29.78in /  1008.4hPa SE 3.0mph /  4.8km/h 3.0mph /  4.8km/h 91% 0.00in /  0mm 33 W/m2
15:46 31.6 °F /  -0.2 °C 29.3 °F /  -1.5 °C 29.78in /  1008.4hPa SSE 3.0mph /  4.8km/h 3.0mph /  4.8km/h 91% 0.00in /  0mm 26 W/m2
15:52 31.7 °F /  -0.2 °C 29.4 °F /  -1.4 °C 29.78in /  1008.4hPa SE 3.0mph /  4.8km/h 3.0mph /  4.8km/h 91% 0.00in /  0mm 25 W/m2
15:58 31.7 °F /  -0.2 °C 29.6 °F /  -1.3 °C 29.78in /  1008.4hPa SSE 3.0mph /  4.8km/h 3.0mph /  4.8km/h 92% 0.00in /  0mm 25 W/m2
16:04 31.7 °F /  -0.2 °C 29.6 °F /  -1.3 °C 29.78in /  1008.4hPa SSE 2.0mph /  3.2km/h 3.0mph /  4.8km/h 92% 0.00in /  0mm 23 W/m2
16:10 31.8 °F /  -0.1 °C 29.7 °F /  -1.3 °C 29.78in /  1008.4hPa SSE 3.0mph /  4.8km/h 3.0mph /  4.8km/h 92% 0.00in /  0mm 23 W/m2
16:16 31.8 °F /  -0.1 °C 29.7 °F /  -1.3 °C 29.77in /  1008hPa SSE 3.0mph /  4.8km/h 3.0mph /  4.8km/h 92% 0.00in /  0mm 19 W/m2
16:22 31.8 °F /  -0.1 °C 29.7 °F /  -1.3 °C 29.77in /  1008hPa SE 3.0mph /  4.8km/h 5.0mph /  8km/h 92% 0.00in /  0mm 12 W/m2
16:28 31.8 °F /  -0.1 °C 29.7 °F /  -1.3 °C 29.77in /  1008hPa SSE 2.0mph /  3.2km/h 5.0mph /  8km/h 92% 0.00in /  0mm 9 W/m2
16:34 31.8 °F /  -0.1 °C 29.7 °F /  -1.3 °C 29.77in /  1008hPa SSE 1.0mph /  1.6km/h 2.0mph /  3.2km/h 92% 0.00in /  0mm 9 W/m2
16:40 31.7 °F /  -0.2 °C 29.6 °F /  -1.3 °C 29.77in /  1008hPa SSE 1.0mph /  1.6km/h 2.0mph /  3.2km/h 92% 0.00in /  0mm 7 W/m2
16:46 31.7 °F /  -0.2 °C 29.6 °F /  -1.3 °C 29.77in /  1008hPa SSE 1.0mph /  1.6km/h 2.0mph /  3.2km/h 92% 0.00in /  0mm 5 W/m2
16:52 31.6 °F /  -0.2 °C 29.5 °F /  -1.4 °C 29.77in /  1008hPa Calm     92% 0.00in /  0mm 0 W/m2
16:58 31.6 °F /  -0.2 °C 29.5 °F /  -1.4 °C 29.77in /  1008hPa Calm     92% 0.00in /  0mm 0 W/m2
17:04 31.6 °F /  -0.2 °C 29.5 °F /  -1.4 °C 29.76in /  1007.7hPa Calm     92% 0.00in /  0mm 0 W/m2
17:10 31.5 °F /  -0.3 °C 29.4 °F /  -1.4 °C 29.76in /  1007.7hPa Calm     92% 0.00in /  0mm 0 W/m2
17:16 31.4 °F /  -0.3 °C 29.3 °F /  -1.5 °C 29.76in /  1007.7hPa Calm     92% 0.00in /  0mm 0 W/m2
17:22 31.4 °F /  -0.3 °C 29.3 °F /  -1.5 °C 29.77in /  1008hPa Calm     92% 0.00in /  0mm 0 W/m2
17:28 31.4 °F /  -0.3 °C 29.3 °F /  -1.5 °C 29.76in /  1007.7hPa Calm     92% 0.00in /  0mm 0 W/m2
17:34 31.4 °F /  -0.3 °C 29.3 °F /  -1.5 °C 29.76in /  1007.7hPa Calm   2.0mph /  3.2km/h 92% 0.00in /  0mm 0 W/m2
17:40 31.4 °F /  -0.3 °C 29.3 °F /  -1.5 °C 29.76in /  1007.7hPa SSE 1.0mph /  1.6km/h 1.0mph /  1.6km/h 92% 0.00in /  0mm 0 W/m2
17:46 31.4 °F /  -0.3 °C 29.3 °F /  -1.5 °C 29.76in /  1007.7hPa Calm   1.0mph /  1.6km/h 92% 0.00in /  0mm 0 W/m2
17:52 31.4 °F /  -0.3 °C 29.3 °F /  -1.5 °C 29.76in /  1007.7hPa Calm     92% 0.00in /  0mm 0 W/m2
17:58 31.4 °F /  -0.3 °C 29.3 °F /  -1.5 °C 29.76in /  1007.7hPa Calm   1.0mph /  1.6km/h 92% 0.00in /  0mm 0 W/m2
18:04 31.5 °F /  -0.3 °C 29.4 °F /  -1.4 °C 29.76in /  1007.7hPa SSE 1.0mph /  1.6km/h 3.0mph /  4.8km/h 92% 0.00in /  0mm 0 W/m2
18:10 31.5 °F /  -0.3 °C 29.4 °F /  -1.4 °C 29.76in /  1007.7hPa SSE 2.0mph /  3.2km/h 2.0mph /  3.2km/h 92% 0.00in /  0mm 0 W/m2
18:16 31.5 °F /  -0.3 °C 29.4 °F /  -1.4 °C 29.76in /  1007.7hPa SSE 1.0mph /  1.6km/h 2.0mph /  3.2km/h 92% 0.00in /  0mm 0 W/m2
18:22 31.6 °F /  -0.2 °C 29.5 °F /  -1.4 °C 29.76in /  1007.7hPa Calm     92% 0.00in /  0mm 0 W/m2
18:28 31.6 °F /  -0.2 °C 29.5 °F /  -1.4 °C 29.76in /  1007.7hPa Calm     92% 0.00in /  0mm 0 W/m2
18:34 31.6 °F /  -0.2 °C 29.5 °F /  -1.4 °C 29.76in /  1007.7hPa Calm     92% 0.00in /  0mm 0 W/m2
18:40 31.6 °F /  -0.2 °C 29.5 °F /  -1.4 °C 29.76in /  1007.7hPa Calm     92% 0.00in /  0mm 0 W/m2
18:46 31.6 °F /  -0.2 °C 29.5 °F /  -1.4 °C 29.76in /  1007.7hPa Calm     92% 0.00in /  0mm 0 W/m2
18:52 31.6 °F /  -0.2 °C 29.5 °F /  -1.4 °C 29.75in /  1007.3hPa Calm     92% 0.00in /  0mm 0 W/m2
18:58 31.6 °F /  -0.2 °C 29.5 °F /  -1.4 °C 29.75in /  1007.3hPa Calm     92% 0.00in /  0mm 0 W/m2
19:04 31.6 °F /  -0.2 °C 29.5 °F /  -1.4 °C 29.75in /  1007.3hPa Calm     92% 0.00in /  0mm 0 W/m2
19:10 31.6 °F /  -0.2 °C 29.5 °F /  -1.4 °C 29.74in /  1007hPa Calm     92% 0.00in /  0mm 0 W/m2
19:16 31.6 °F /  -0.2 °C 29.5 °F /  -1.4 °C 29.74in /  1007hPa Calm     92% 0.00in /  0mm 0 W/m2
19:22 31.6 °F /  -0.2 °C 29.5 °F /  -1.4 °C 29.74in /  1007hPa Calm     92% 0.00in /  0mm 0 W/m2
19:28 31.5 °F /  -0.3 °C 29.4 °F /  -1.4 °C 29.73in /  1006.7hPa Calm     92% 0.00in /  0mm 0 W/m2
19:34 31.5 °F /  -0.3 °C 29.4 °F /  -1.4 °C 29.74in /  1007hPa Calm     92% 0.00in /  0mm 0 W/m2
19:40 31.5 °F /  -0.3 °C 29.7 °F /  -1.3 °C 29.73in /  1006.7hPa Calm     93% 0.00in /  0mm 0 W/m2
19:46 31.4 °F /  -0.3 °C 29.6 °F /  -1.3 °C 29.73in /  1006.7hPa Calm     93% 0.00in /  0mm 0 W/m2
19:52 31.4 °F /  -0.3 °C 29.6 °F /  -1.3 °C 29.73in /  1006.7hPa Calm     93% 0.00in /  0mm 0 W/m2
19:58 31.4 °F /  -0.3 °C 29.6 °F /  -1.3 °C 29.73in /  1006.7hPa Calm     93% 0.00in /  0mm 0 W/m2
20:04 31.4 °F /  -0.3 °C 29.6 °F /  -1.3 °C 29.73in /  1006.7hPa Calm     93% 0.00in /  0mm 0 W/m2
20:10 31.3 °F /  -0.4 °C 29.5 °F /  -1.4 °C 29.72in /  1006.3hPa Calm     93% 0.00in /  0mm 0 W/m2
20:16 31.2 °F /  -0.4 °C 29.4 °F /  -1.4 °C 29.72in /  1006.3hPa Calm     93% 0.00in /  0mm 0 W/m2
20:22 31.3 °F /  -0.4 °C 29.5 °F /  -1.4 °C 29.72in /  1006.3hPa Calm     93% 0.00in /  0mm 0 W/m2
20:28 31.3 °F /  -0.4 °C 29.5 °F /  -1.4 °C 29.71in /  1006hPa Calm     93% 0.00in /  0mm 0 W/m2
20:34 31.3 °F /  -0.4 °C 29.5 °F /  -1.4 °C 29.71in /  1006hPa Calm     93% 0.00in /  0mm 0 W/m2
20:40 31.4 °F /  -0.3 °C 29.6 °F /  -1.3 °C 29.71in /  1006hPa Calm     93% 0.00in /  0mm 0 W/m2
20:46 31.2 °F /  -0.4 °C 29.4 °F /  -1.4 °C 29.70in /  1005.6hPa Calm     93% 0.00in /  0mm 0 W/m2
20:52 31.1 °F /  -0.5 °C 29.3 °F /  -1.5 °C 29.70in /  1005.6hPa Calm     93% 0.00in /  0mm 0 W/m2
20:58 30.8 °F /  -0.7 °C 29.0 °F /  -1.7 °C 29.69in /  1005.3hPa Calm     93% 0.00in /  0mm 0 W/m2
21:04 30.7 °F /  -0.7 °C 28.9 °F /  -1.7 °C 29.69in /  1005.3hPa Calm     93% 0.00in /  0mm 0 W/m2
21:10 30.8 °F /  -0.7 °C 29.0 °F /  -1.7 °C 29.68in /  1005hPa Calm     93% 0.00in /  0mm 0 W/m2
21:16 30.8 °F /  -0.7 °C 29.0 °F /  -1.7 °C 29.68in /  1005hPa Calm     93% 0.00in /  0mm 0 W/m2
21:22 30.8 °F /  -0.7 °C 29.0 °F /  -1.7 °C 29.68in /  1005hPa Calm     93% 0.00in /  0mm 0 W/m2
21:28 30.7 °F /  -0.7 °C 28.9 °F /  -1.7 °C 29.68in /  1005hPa Calm     93% 0.00in /  0mm 0 W/m2
21:34 30.7 °F /  -0.7 °C 28.9 °F /  -1.7 °C 29.68in /  1005hPa Calm     93% 0.00in /  0mm 0 W/m2
21:40 30.6 °F /  -0.8 °C 28.8 °F /  -1.8 °C 29.68in /  1005hPa Calm     93% 0.00in /  0mm 0 W/m2
21:46 30.6 °F /  -0.8 °C 28.8 °F /  -1.8 °C 29.68in /  1005hPa Calm     93% 0.00in /  0mm 0 W/m2
21:52 30.5 °F /  -0.8 °C 28.7 °F /  -1.8 °C 29.68in /  1005hPa Calm     93% 0.00in /  0mm 0 W/m2
21:58 30.5 °F /  -0.8 °C 28.7 °F /  -1.8 °C 29.68in /  1005hPa Calm     93% 0.00in /  0mm 0 W/m2
22:04 30.4 °F /  -0.9 °C 28.6 °F /  -1.9 °C 29.68in /  1005hPa Calm     93% 0.00in /  0mm 0 W/m2
22:10 30.4 °F /  -0.9 °C 28.6 °F /  -1.9 °C 29.68in /  1005hPa Calm     93% 0.00in /  0mm 0 W/m2
22:16 30.4 °F /  -0.9 °C 28.6 °F /  -1.9 °C 29.68in /  1005hPa Calm     93% 0.00in /  0mm 0 W/m2
22:22 30.3 °F /  -0.9 °C 28.5 °F /  -1.9 °C 29.68in /  1005hPa Calm     93% 0.00in /  0mm 0 W/m2
22:28 30.3 °F /  -0.9 °C 28.5 °F /  -1.9 °C 29.68in /  1005hPa Calm     93% 0.00in /  0mm 0 W/m2
22:34 30.3 °F /  -0.9 °C 28.5 °F /  -1.9 °C 29.68in /  1005hPa Calm     93% 0.00in /  0mm 0 W/m2
22:40 30.3 °F /  -0.9 °C 28.5 °F /  -1.9 °C 29.68in /  1005hPa Calm     93% 0.00in /  0mm 0 W/m2
22:46 30.3 °F /  -0.9 °C 28.5 °F /  -1.9 °C 29.68in /  1005hPa Calm     93% 0.00in /  0mm 0 W/m2
22:52 30.2 °F /  -1 °C 28.4 °F /  -2 °C 29.67in /  1004.6hPa Calm     93% 0.00in /  0mm 0 W/m2
22:58 30.1 °F /  -1.1 °C 28.3 °F /  -2.1 °C 29.67in /  1004.6hPa Calm     93% 0.00in /  0mm 0 W/m2
23:04 30.0 °F /  -1.1 °C 28.2 °F /  -2.1 °C 29.66in /  1004.3hPa Calm     93% 0.00in /  0mm 0 W/m2
23:10 30.0 °F /  -1.1 °C 28.2 °F /  -2.1 °C 29.66in /  1004.3hPa Calm     93% 0.00in /  0mm 0 W/m2
23:16 29.9 °F /  -1.2 °C 28.1 °F /  -2.2 °C 29.66in /  1004.3hPa Calm     93% 0.00in /  0mm 0 W/m2
23:22 29.9 °F /  -1.2 °C 28.1 °F /  -2.2 °C 29.66in /  1004.3hPa Calm     93% 0.00in /  0mm 0 W/m2
23:28 30.0 °F /  -1.1 °C 28.2 °F /  -2.1 °C 29.66in /  1004.3hPa Calm     93% 0.00in /  0mm 0 W/m2
23:34 30.0 °F /  -1.1 °C 28.2 °F /  -2.1 °C 29.65in /  1003.9hPa Calm     93% 0.00in /  0mm 0 W/m2
23:40 30.1 °F /  -1.1 °C 28.3 °F /  -2.1 °C 29.65in /  1003.9hPa Calm     93% 0.00in /  0mm 0 W/m2
23:46 30.1 °F /  -1.1 °C 28.3 °F /  -2.1 °C 29.65in /  1003.9hPa Calm     93% 0.00in /  0mm 0 W/m2
23:52 30.0 °F /  -1.1 °C 28.2 °F /  -2.1 °C 29.65in /  1003.9hPa Calm     93% 0.00in /  0mm 0 W/m2
23:58 30.0 °F /  -1.1 °C 28.2 °F /  -2.1 °C 29.65in /  1003.9hPa Calm     93% 0.00in /  0mm 0 W/m2
Country Meadow, Clay, NY, USA
Compliments of Weather Underground - 2 mb